sensor_id;sensor_type;location;lat;lon;timestamp;P1;durP1;ratioP1;P2;durP2;ratioP2
36351;SDS011;22382;44.768;17.206;2024-03-06T00:00:34;23.48;;;10.07;;
36351;SDS011;22382;44.768;17.206;2024-03-06T00:03:01;21.73;;;10.25;;
36351;SDS011;22382;44.768;17.206;2024-03-06T00:05:29;18.27;;;9.13;;
36351;SDS011;22382;44.768;17.206;2024-03-06T00:07:57;25.23;;;9.60;;
36351;SDS011;22382;44.768;17.206;2024-03-06T00:10:24;19.88;;;9.95;;
36351;SDS011;22382;44.768;17.206;2024-03-06T00:12:51;20.13;;;9.65;;
36351;SDS011;22382;44.768;17.206;2024-03-06T00:15:18;21.00;;;9.55;;
36351;SDS011;22382;44.768;17.206;2024-03-06T00:17:45;23.73;;;10.07;;
36351;SDS011;22382;44.768;17.206;2024-03-06T00:20:13;19.92;;;9.70;;
36351;SDS011;22382;44.768;17.206;2024-03-06T00:22:40;19.73;;;10.32;;
36351;SDS011;22382;44.768;17.206;2024-03-06T00:25:08;23.23;;;9.32;;
36351;SDS011;22382;44.768;17.206;2024-03-06T00:27:35;21.27;;;10.52;;
36351;SDS011;22382;44.768;17.206;2024-03-06T00:30:02;22.65;;;10.10;;
36351;SDS011;22382;44.768;17.206;2024-03-06T00:32:30;21.25;;;8.80;;
36351;SDS011;22382;44.768;17.206;2024-03-06T00:34:57;23.15;;;9.85;;
36351;SDS011;22382;44.768;17.206;2024-03-06T00:37:24;19.25;;;9.77;;
36351;SDS011;22382;44.768;17.206;2024-03-06T00:39:51;18.33;;;8.98;;
36351;SDS011;22382;44.768;17.206;2024-03-06T00:42:19;21.63;;;9.38;;
36351;SDS011;22382;44.768;17.206;2024-03-06T00:44:46;21.73;;;9.80;;
36351;SDS011;22382;44.768;17.206;2024-03-06T00:47:13;20.85;;;9.73;;
36351;SDS011;22382;44.768;17.206;2024-03-06T00:49:41;22.40;;;9.50;;
36351;SDS011;22382;44.768;17.206;2024-03-06T00:52:09;19.33;;;10.10;;
36351;SDS011;22382;44.768;17.206;2024-03-06T00:54:36;20.23;;;9.63;;
36351;SDS011;22382;44.768;17.206;2024-03-06T00:57:03;22.95;;;9.10;;
36351;SDS011;22382;44.768;17.206;2024-03-06T00:59:30;20.15;;;8.77;;
36351;SDS011;22382;44.768;17.206;2024-03-06T01:01:57;23.05;;;9.80;;
36351;SDS011;22382;44.768;17.206;2024-03-06T01:04:25;18.65;;;9.80;;
36351;SDS011;22382;44.768;17.206;2024-03-06T01:06:52;19.75;;;9.32;;
36351;SDS011;22382;44.768;17.206;2024-03-06T01:09:19;27.52;;;8.85;;
36351;SDS011;22382;44.768;17.206;2024-03-06T01:11:46;16.70;;;10.02;;
36351;SDS011;22382;44.768;17.206;2024-03-06T01:14:14;20.08;;;8.98;;
36351;SDS011;22382;44.768;17.206;2024-03-06T01:16:43;23.67;;;10.32;;
36351;SDS011;22382;44.768;17.206;2024-03-06T01:19:10;22.23;;;10.95;;
36351;SDS011;22382;44.768;17.206;2024-03-06T01:21:38;19.48;;;9.70;;
36351;SDS011;22382;44.768;17.206;2024-03-06T01:24:05;16.40;;;8.18;;
36351;SDS011;22382;44.768;17.206;2024-03-06T01:26:32;17.95;;;8.15;;
36351;SDS011;22382;44.768;17.206;2024-03-06T01:29:00;24.35;;;8.68;;
36351;SDS011;22382;44.768;17.206;2024-03-06T01:31:27;19.00;;;8.40;;
36351;SDS011;22382;44.768;17.206;2024-03-06T01:33:54;16.85;;;8.25;;
36351;SDS011;22382;44.768;17.206;2024-03-06T01:36:21;19.17;;;7.88;;
36351;SDS011;22382;44.768;17.206;2024-03-06T01:38:49;19.20;;;7.80;;
36351;SDS011;22382;44.768;17.206;2024-03-06T01:41:16;17.08;;;8.00;;
36351;SDS011;22382;44.768;17.206;2024-03-06T01:43:43;19.65;;;8.27;;
36351;SDS011;22382;44.768;17.206;2024-03-06T01:46:11;15.32;;;7.80;;
36351;SDS011;22382;44.768;17.206;2024-03-06T01:48:38;19.38;;;7.80;;
36351;SDS011;22382;44.768;17.206;2024-03-06T01:51:06;19.40;;;7.85;;
36351;SDS011;22382;44.768;17.206;2024-03-06T01:53:33;18.90;;;7.45;;
36351;SDS011;22382;44.768;17.206;2024-03-06T01:56:02;21.75;;;7.43;;
36351;SDS011;22382;44.768;17.206;2024-03-06T01:58:31;20.00;;;8.68;;
36351;SDS011;22382;44.768;17.206;2024-03-06T02:01:00;15.30;;;8.02;;
36351;SDS011;22382;44.768;17.206;2024-03-06T02:03:28;19.77;;;8.23;;
36351;SDS011;22382;44.768;17.206;2024-03-06T02:05:58;17.33;;;8.65;;
36351;SDS011;22382;44.768;17.206;2024-03-06T02:08:28;19.25;;;7.90;;
36351;SDS011;22382;44.768;17.206;2024-03-06T02:10:56;21.52;;;8.38;;
36351;SDS011;22382;44.768;17.206;2024-03-06T02:13:23;18.48;;;8.10;;
36351;SDS011;22382;44.768;17.206;2024-03-06T02:15:51;20.65;;;9.70;;
36351;SDS011;22382;44.768;17.206;2024-03-06T02:18:18;19.90;;;9.73;;
36351;SDS011;22382;44.768;17.206;2024-03-06T02:20:45;23.25;;;9.43;;
36351;SDS011;22382;44.768;17.206;2024-03-06T02:23:13;17.92;;;7.95;;
36351;SDS011;22382;44.768;17.206;2024-03-06T02:25:41;17.10;;;7.95;;
36351;SDS011;22382;44.768;17.206;2024-03-06T02:28:08;15.48;;;7.80;;
36351;SDS011;22382;44.768;17.206;2024-03-06T02:30:35;24.02;;;8.35;;
36351;SDS011;22382;44.768;17.206;2024-03-06T02:33:04;17.35;;;7.95;;
36351;SDS011;22382;44.768;17.206;2024-03-06T02:35:36;15.98;;;8.27;;
36351;SDS011;22382;44.768;17.206;2024-03-06T02:38:04;17.08;;;8.50;;
36351;SDS011;22382;44.768;17.206;2024-03-06T02:40:32;21.92;;;9.40;;
36351;SDS011;22382;44.768;17.206;2024-03-06T02:42:59;16.90;;;8.48;;
36351;SDS011;22382;44.768;17.206;2024-03-06T02:45:27;21.05;;;9.35;;
36351;SDS011;22382;44.768;17.206;2024-03-06T02:47:55;19.80;;;8.68;;
36351;SDS011;22382;44.768;17.206;2024-03-06T02:50:22;19.23;;;8.63;;
36351;SDS011;22382;44.768;17.206;2024-03-06T02:52:50;19.02;;;8.98;;
36351;SDS011;22382;44.768;17.206;2024-03-06T02:55:21;17.40;;;8.95;;
36351;SDS011;22382;44.768;17.206;2024-03-06T02:57:50;23.30;;;8.93;;
36351;SDS011;22382;44.768;17.206;2024-03-06T03:00:17;20.65;;;9.05;;
36351;SDS011;22382;44.768;17.206;2024-03-06T03:02:44;21.13;;;8.85;;
36351;SDS011;22382;44.768;17.206;2024-03-06T03:05:11;20.27;;;8.77;;
36351;SDS011;22382;44.768;17.206;2024-03-06T03:07:39;15.65;;;7.80;;
36351;SDS011;22382;44.768;17.206;2024-03-06T03:10:06;14.15;;;8.23;;
36351;SDS011;22382;44.768;17.206;2024-03-06T03:12:34;19.25;;;8.10;;
36351;SDS011;22382;44.768;17.206;2024-03-06T03:15:01;21.65;;;8.50;;
36351;SDS011;22382;44.768;17.206;2024-03-06T03:17:28;17.77;;;8.35;;
36351;SDS011;22382;44.768;17.206;2024-03-06T03:19:56;17.50;;;8.57;;
36351;SDS011;22382;44.768;17.206;2024-03-06T03:22:23;16.08;;;8.18;;
36351;SDS011;22382;44.768;17.206;2024-03-06T03:24:51;21.35;;;8.43;;
36351;SDS011;22382;44.768;17.206;2024-03-06T03:27:18;24.80;;;9.02;;
36351;SDS011;22382;44.768;17.206;2024-03-06T03:29:45;21.33;;;8.63;;
36351;SDS011;22382;44.768;17.206;2024-03-06T03:32:12;17.02;;;9.30;;
36351;SDS011;22382;44.768;17.206;2024-03-06T03:34:40;20.40;;;9.48;;
36351;SDS011;22382;44.768;17.206;2024-03-06T03:37:07;17.33;;;8.85;;
36351;SDS011;22382;44.768;17.206;2024-03-06T03:39:35;16.10;;;8.70;;
36351;SDS011;22382;44.768;17.206;2024-03-06T03:42:02;16.58;;;8.38;;
36351;SDS011;22382;44.768;17.206;2024-03-06T03:44:30;19.98;;;8.32;;
36351;SDS011;22382;44.768;17.206;2024-03-06T03:46:57;15.13;;;8.38;;
36351;SDS011;22382;44.768;17.206;2024-03-06T03:49:24;22.70;;;8.98;;
36351;SDS011;22382;44.768;17.206;2024-03-06T03:51:52;22.33;;;8.52;;
36351;SDS011;22382;44.768;17.206;2024-03-06T03:54:19;15.20;;;8.40;;
36351;SDS011;22382;44.768;17.206;2024-03-06T03:56:46;19.13;;;8.32;;
36351;SDS011;22382;44.768;17.206;2024-03-06T03:59:14;18.70;;;8.38;;
36351;SDS011;22382;44.768;17.206;2024-03-06T04:01:41;18.30;;;8.65;;
36351;SDS011;22382;44.768;17.206;2024-03-06T04:04:11;23.17;;;9.43;;
36351;SDS011;22382;44.768;17.206;2024-03-06T04:06:38;20.48;;;9.40;;
36351;SDS011;22382;44.768;17.206;2024-03-06T04:09:06;19.17;;;8.27;;
36351;SDS011;22382;44.768;17.206;2024-03-06T04:11:36;21.60;;;8.85;;
36351;SDS011;22382;44.768;17.206;2024-03-06T04:14:04;17.67;;;9.20;;
36351;SDS011;22382;44.768;17.206;2024-03-06T04:16:33;17.85;;;8.43;;
36351;SDS011;22382;44.768;17.206;2024-03-06T04:19:01;18.65;;;9.38;;
36351;SDS011;22382;44.768;17.206;2024-03-06T04:21:28;18.33;;;8.52;;
36351;SDS011;22382;44.768;17.206;2024-03-06T04:23:55;15.77;;;7.32;;
36351;SDS011;22382;44.768;17.206;2024-03-06T04:26:22;19.90;;;8.65;;
36351;SDS011;22382;44.768;17.206;2024-03-06T04:28:50;16.60;;;8.25;;
36351;SDS011;22382;44.768;17.206;2024-03-06T04:31:17;16.85;;;7.65;;
36351;SDS011;22382;44.768;17.206;2024-03-06T04:33:44;16.33;;;7.82;;
36351;SDS011;22382;44.768;17.206;2024-03-06T04:36:11;19.70;;;8.15;;
36351;SDS011;22382;44.768;17.206;2024-03-06T04:38:39;19.30;;;7.85;;
36351;SDS011;22382;44.768;17.206;2024-03-06T04:41:06;14.15;;;8.02;;
36351;SDS011;22382;44.768;17.206;2024-03-06T04:43:33;20.42;;;8.55;;
36351;SDS011;22382;44.768;17.206;2024-03-06T04:46:02;25.48;;;9.35;;
36351;SDS011;22382;44.768;17.206;2024-03-06T04:48:29;18.23;;;9.10;;
36351;SDS011;22382;44.768;17.206;2024-03-06T04:50:56;23.75;;;9.80;;
36351;SDS011;22382;44.768;17.206;2024-03-06T04:53:24;20.02;;;8.52;;
36351;SDS011;22382;44.768;17.206;2024-03-06T04:55:51;17.70;;;9.13;;
36351;SDS011;22382;44.768;17.206;2024-03-06T04:58:19;20.58;;;9.95;;
36351;SDS011;22382;44.768;17.206;2024-03-06T05:00:46;18.98;;;8.82;;
36351;SDS011;22382;44.768;17.206;2024-03-06T05:03:14;19.92;;;10.25;;
36351;SDS011;22382;44.768;17.206;2024-03-06T05:05:59;20.75;;;9.35;;
36351;SDS011;22382;44.768;17.206;2024-03-06T05:08:43;21.88;;;9.57;;
36351;SDS011;22382;44.768;17.206;2024-03-06T05:11:28;20.48;;;10.05;;
36351;SDS011;22382;44.768;17.206;2024-03-06T05:14:13;20.05;;;9.35;;
36351;SDS011;22382;44.768;17.206;2024-03-06T05:16:58;19.25;;;9.18;;
36351;SDS011;22382;44.768;17.206;2024-03-06T05:19:43;21.52;;;9.98;;
36351;SDS011;22382;44.768;17.206;2024-03-06T05:22:28;20.50;;;9.45;;
36351;SDS011;22382;44.768;17.206;2024-03-06T05:25:13;28.48;;;12.63;;
36351;SDS011;22382;44.768;17.206;2024-03-06T05:27:57;31.48;;;16.55;;
36351;SDS011;22382;44.768;17.206;2024-03-06T05:30:42;41.88;;;19.50;;
36351;SDS011;22382;44.768;17.206;2024-03-06T05:33:27;34.67;;;19.15;;
36351;SDS011;22382;44.768;17.206;2024-03-06T05:36:12;33.58;;;17.60;;
36351;SDS011;22382;44.768;17.206;2024-03-06T05:38:57;37.10;;;17.95;;
36351;SDS011;22382;44.768;17.206;2024-03-06T05:41:41;32.03;;;16.80;;
36351;SDS011;22382;44.768;17.206;2024-03-06T05:44:26;28.73;;;14.38;;
36351;SDS011;22382;44.768;17.206;2024-03-06T05:47:11;27.42;;;14.23;;
36351;SDS011;22382;44.768;17.206;2024-03-06T05:49:55;36.72;;;16.13;;
36351;SDS011;22382;44.768;17.206;2024-03-06T05:52:40;23.98;;;13.13;;
36351;SDS011;22382;44.768;17.206;2024-03-06T05:55:24;25.77;;;13.65;;
36351;SDS011;22382;44.768;17.206;2024-03-06T05:58:09;26.98;;;14.45;;
36351;SDS011;22382;44.768;17.206;2024-03-06T06:00:41;29.80;;;14.90;;
36351;SDS011;22382;44.768;17.206;2024-03-06T06:03:09;30.08;;;14.15;;
36351;SDS011;22382;44.768;17.206;2024-03-06T06:05:39;24.98;;;13.40;;
36351;SDS011;22382;44.768;17.206;2024-03-06T06:08:07;24.63;;;12.65;;
36351;SDS011;22382;44.768;17.206;2024-03-06T06:10:34;25.17;;;13.77;;
36351;SDS011;22382;44.768;17.206;2024-03-06T06:13:01;23.30;;;12.63;;
36351;SDS011;22382;44.768;17.206;2024-03-06T06:15:31;24.98;;;13.32;;
36351;SDS011;22382;44.768;17.206;2024-03-06T06:17:59;25.60;;;12.60;;
36351;SDS011;22382;44.768;17.206;2024-03-06T06:20:27;19.95;;;12.00;;
36351;SDS011;22382;44.768;17.206;2024-03-06T06:22:54;20.77;;;11.60;;
36351;SDS011;22382;44.768;17.206;2024-03-06T06:25:21;24.35;;;13.00;;
36351;SDS011;22382;44.768;17.206;2024-03-06T06:27:49;22.15;;;11.40;;
36351;SDS011;22382;44.768;17.206;2024-03-06T06:30:16;18.40;;;11.07;;
36351;SDS011;22382;44.768;17.206;2024-03-06T06:32:44;19.35;;;11.57;;
36351;SDS011;22382;44.768;17.206;2024-03-06T06:35:11;27.42;;;12.63;;
36351;SDS011;22382;44.768;17.206;2024-03-06T06:37:40;28.50;;;12.77;;
36351;SDS011;22382;44.768;17.206;2024-03-06T06:40:08;22.17;;;12.80;;
36351;SDS011;22382;44.768;17.206;2024-03-06T06:42:36;19.60;;;10.85;;
36351;SDS011;22382;44.768;17.206;2024-03-06T06:45:03;19.83;;;11.00;;
36351;SDS011;22382;44.768;17.206;2024-03-06T06:47:36;18.55;;;10.30;;
36351;SDS011;22382;44.768;17.206;2024-03-06T06:50:03;19.33;;;11.15;;
36351;SDS011;22382;44.768;17.206;2024-03-06T06:52:32;16.40;;;10.18;;
36351;SDS011;22382;44.768;17.206;2024-03-06T06:55:01;22.38;;;10.35;;
36351;SDS011;22382;44.768;17.206;2024-03-06T06:57:29;19.60;;;9.98;;
36351;SDS011;22382;44.768;17.206;2024-03-06T06:59:57;21.67;;;11.00;;
36351;SDS011;22382;44.768;17.206;2024-03-06T07:02:24;22.13;;;11.07;;
36351;SDS011;22382;44.768;17.206;2024-03-06T07:11:55;28.92;;;11.40;;
36351;SDS011;22382;44.768;17.206;2024-03-06T07:14:23;16.60;;;10.60;;
36351;SDS011;22382;44.768;17.206;2024-03-06T07:16:50;20.67;;;10.95;;
36351;SDS011;22382;44.768;17.206;2024-03-06T07:19:17;26.60;;;12.48;;
36351;SDS011;22382;44.768;17.206;2024-03-06T07:21:45;21.20;;;11.93;;
36351;SDS011;22382;44.768;17.206;2024-03-06T07:24:12;22.40;;;12.00;;
36351;SDS011;22382;44.768;17.206;2024-03-06T07:26:39;20.30;;;11.82;;
36351;SDS011;22382;44.768;17.206;2024-03-06T07:29:07;24.27;;;12.90;;
36351;SDS011;22382;44.768;17.206;2024-03-06T07:31:41;22.48;;;11.85;;
36351;SDS011;22382;44.768;17.206;2024-03-06T07:34:09;19.75;;;10.57;;
36351;SDS011;22382;44.768;17.206;2024-03-06T07:36:37;22.67;;;12.50;;
36351;SDS011;22382;44.768;17.206;2024-03-06T07:39:05;31.35;;;13.60;;
36351;SDS011;22382;44.768;17.206;2024-03-06T07:41:32;22.95;;;12.57;;
36351;SDS011;22382;44.768;17.206;2024-03-06T07:43:59;25.90;;;13.02;;
36351;SDS011;22382;44.768;17.206;2024-03-06T07:46:26;22.52;;;12.82;;
36351;SDS011;22382;44.768;17.206;2024-03-06T07:48:54;24.30;;;11.70;;
36351;SDS011;22382;44.768;17.206;2024-03-06T07:51:21;28.67;;;14.63;;
36351;SDS011;22382;44.768;17.206;2024-03-06T07:53:49;28.40;;;15.30;;
36351;SDS011;22382;44.768;17.206;2024-03-06T07:56:17;31.10;;;15.18;;
36351;SDS011;22382;44.768;17.206;2024-03-06T07:58:45;27.85;;;16.08;;
36351;SDS011;22382;44.768;17.206;2024-03-06T08:01:15;25.52;;;13.82;;
36351;SDS011;22382;44.768;17.206;2024-03-06T08:03:43;25.10;;;15.18;;
36351;SDS011;22382;44.768;17.206;2024-03-06T08:06:10;25.27;;;14.68;;
36351;SDS011;22382;44.768;17.206;2024-03-06T08:08:40;24.08;;;13.10;;
36351;SDS011;22382;44.768;17.206;2024-03-06T08:11:07;30.35;;;16.70;;
36351;SDS011;22382;44.768;17.206;2024-03-06T08:13:40;37.20;;;19.25;;
36351;SDS011;22382;44.768;17.206;2024-03-06T08:16:07;31.27;;;18.08;;
36351;SDS011;22382;44.768;17.206;2024-03-06T08:18:36;30.67;;;17.13;;
36351;SDS011;22382;44.768;17.206;2024-03-06T08:21:03;29.38;;;16.52;;
36351;SDS011;22382;44.768;17.206;2024-03-06T08:23:32;38.60;;;17.30;;
36351;SDS011;22382;44.768;17.206;2024-03-06T08:26:00;29.10;;;16.50;;
36351;SDS011;22382;44.768;17.206;2024-03-06T08:28:27;30.38;;;16.33;;
36351;SDS011;22382;44.768;17.206;2024-03-06T08:30:54;26.58;;;14.02;;
36351;SDS011;22382;44.768;17.206;2024-03-06T08:33:21;21.90;;;12.90;;
36351;SDS011;22382;44.768;17.206;2024-03-06T08:35:49;25.15;;;12.30;;
36351;SDS011;22382;44.768;17.206;2024-03-06T08:38:17;23.33;;;12.20;;
36351;SDS011;22382;44.768;17.206;2024-03-06T08:40:44;22.85;;;12.20;;
36351;SDS011;22382;44.768;17.206;2024-03-06T08:43:12;23.20;;;12.85;;
36351;SDS011;22382;44.768;17.206;2024-03-06T08:45:42;27.25;;;13.18;;
36351;SDS011;22382;44.768;17.206;2024-03-06T08:48:09;24.77;;;12.40;;
36351;SDS011;22382;44.768;17.206;2024-03-06T08:50:38;30.17;;;14.88;;
36351;SDS011;22382;44.768;17.206;2024-03-06T08:53:06;25.33;;;13.85;;
36351;SDS011;22382;44.768;17.206;2024-03-06T08:55:33;36.33;;;16.60;;
36351;SDS011;22382;44.768;17.206;2024-03-06T08:58:01;33.95;;;16.83;;
36351;SDS011;22382;44.768;17.206;2024-03-06T09:00:28;34.15;;;17.52;;
36351;SDS011;22382;44.768;17.206;2024-03-06T09:02:55;37.25;;;18.98;;
36351;SDS011;22382;44.768;17.206;2024-03-06T09:05:22;28.50;;;17.52;;
36351;SDS011;22382;44.768;17.206;2024-03-06T09:07:50;33.10;;;16.88;;
36351;SDS011;22382;44.768;17.206;2024-03-06T09:10:17;38.15;;;18.95;;
36351;SDS011;22382;44.768;17.206;2024-03-06T09:12:45;44.22;;;20.88;;
36351;SDS011;22382;44.768;17.206;2024-03-06T09:15:14;41.17;;;22.60;;
36351;SDS011;22382;44.768;17.206;2024-03-06T09:17:42;40.90;;;22.52;;
36351;SDS011;22382;44.768;17.206;2024-03-06T09:20:11;40.83;;;23.08;;
36351;SDS011;22382;44.768;17.206;2024-03-06T09:22:40;37.85;;;20.63;;
36351;SDS011;22382;44.768;17.206;2024-03-06T09:25:09;38.38;;;22.95;;
36351;SDS011;22382;44.768;17.206;2024-03-06T09:27:41;39.03;;;21.73;;
36351;SDS011;22382;44.768;17.206;2024-03-06T09:30:09;39.80;;;23.27;;
36351;SDS011;22382;44.768;17.206;2024-03-06T09:32:39;33.80;;;19.67;;
36351;SDS011;22382;44.768;17.206;2024-03-06T09:35:08;38.35;;;21.85;;
36351;SDS011;22382;44.768;17.206;2024-03-06T09:37:36;39.08;;;20.77;;
36351;SDS011;22382;44.768;17.206;2024-03-06T09:40:03;41.10;;;21.73;;
36351;SDS011;22382;44.768;17.206;2024-03-06T09:42:31;40.17;;;21.90;;
36351;SDS011;22382;44.768;17.206;2024-03-06T09:44:58;33.88;;;20.92;;
36351;SDS011;22382;44.768;17.206;2024-03-06T09:47:26;30.80;;;19.00;;
36351;SDS011;22382;44.768;17.206;2024-03-06T09:49:59;37.72;;;20.58;;
36351;SDS011;22382;44.768;17.206;2024-03-06T09:52:29;32.63;;;19.52;;
36351;SDS011;22382;44.768;17.206;2024-03-06T09:54:57;37.20;;;21.52;;
36351;SDS011;22382;44.768;17.206;2024-03-06T09:57:26;36.38;;;21.63;;
36351;SDS011;22382;44.768;17.206;2024-03-06T09:59:53;27.17;;;17.05;;
36351;SDS011;22382;44.768;17.206;2024-03-06T10:05:04;41.70;;;21.83;;
36351;SDS011;22382;44.768;17.206;2024-03-06T10:07:32;35.97;;;21.33;;
36351;SDS011;22382;44.768;17.206;2024-03-06T10:09:59;37.25;;;21.70;;
36351;SDS011;22382;44.768;17.206;2024-03-06T10:12:27;31.05;;;20.33;;
36351;SDS011;22382;44.768;17.206;2024-03-06T10:14:56;30.40;;;19.05;;
36351;SDS011;22382;44.768;17.206;2024-03-06T10:17:23;30.08;;;18.98;;
36351;SDS011;22382;44.768;17.206;2024-03-06T10:19:54;34.60;;;20.52;;
36351;SDS011;22382;44.768;17.206;2024-03-06T10:22:23;36.75;;;21.65;;
36351;SDS011;22382;44.768;17.206;2024-03-06T10:24:54;33.78;;;19.85;;
36351;SDS011;22382;44.768;17.206;2024-03-06T10:27:25;34.08;;;20.70;;
36351;SDS011;22382;44.768;17.206;2024-03-06T10:30:04;36.88;;;20.23;;
36351;SDS011;22382;44.768;17.206;2024-03-06T10:32:37;34.35;;;20.20;;
36351;SDS011;22382;44.768;17.206;2024-03-06T10:35:05;34.80;;;20.67;;
36351;SDS011;22382;44.768;17.206;2024-03-06T10:37:33;36.22;;;21.25;;
36351;SDS011;22382;44.768;17.206;2024-03-06T10:40:02;34.63;;;20.55;;
36351;SDS011;22382;44.768;17.206;2024-03-06T10:42:32;38.88;;;19.90;;
36351;SDS011;22382;44.768;17.206;2024-03-06T10:45:02;32.03;;;20.17;;
36351;SDS011;22382;44.768;17.206;2024-03-06T10:47:30;31.58;;;19.63;;
36351;SDS011;22382;44.768;17.206;2024-03-06T10:50:02;36.63;;;20.17;;
36351;SDS011;22382;44.768;17.206;2024-03-06T10:52:31;35.00;;;19.90;;
36351;SDS011;22382;44.768;17.206;2024-03-06T10:55:01;30.23;;;17.98;;
36351;SDS011;22382;44.768;17.206;2024-03-06T10:57:30;29.67;;;18.90;;
36351;SDS011;22382;44.768;17.206;2024-03-06T10:59:58;30.67;;;17.73;;
36351;SDS011;22382;44.768;17.206;2024-03-06T11:02:30;29.65;;;18.42;;
36351;SDS011;22382;44.768;17.206;2024-03-06T11:04:58;32.22;;;18.83;;
36351;SDS011;22382;44.768;17.206;2024-03-06T11:07:26;30.55;;;18.10;;
36351;SDS011;22382;44.768;17.206;2024-03-06T11:09:54;37.05;;;20.33;;
36351;SDS011;22382;44.768;17.206;2024-03-06T11:12:34;31.15;;;19.95;;
36351;SDS011;22382;44.768;17.206;2024-03-06T11:15:23;36.72;;;20.77;;
36351;SDS011;22382;44.768;17.206;2024-03-06T11:17:51;30.95;;;18.63;;
36351;SDS011;22382;44.768;17.206;2024-03-06T11:20:21;31.88;;;19.35;;
36351;SDS011;22382;44.768;17.206;2024-03-06T11:33:28;28.52;;;17.38;;
36351;SDS011;22382;44.768;17.206;2024-03-06T11:38:53;26.73;;;16.80;;
36351;SDS011;22382;44.768;17.206;2024-03-06T11:41:27;28.10;;;16.48;;
36351;SDS011;22382;44.768;17.206;2024-03-06T11:43:56;31.08;;;17.95;;
36351;SDS011;22382;44.768;17.206;2024-03-06T11:49:16;29.98;;;17.95;;
36351;SDS011;22382;44.768;17.206;2024-03-06T11:51:52;25.13;;;17.23;;
36351;SDS011;22382;44.768;17.206;2024-03-06T11:54:20;35.65;;;19.13;;
36351;SDS011;22382;44.768;17.206;2024-03-06T11:56:56;30.02;;;17.67;;
36351;SDS011;22382;44.768;17.206;2024-03-06T12:01:57;34.80;;;17.92;;
36351;SDS011;22382;44.768;17.206;2024-03-06T12:04:29;25.27;;;17.23;;
36351;SDS011;22382;44.768;17.206;2024-03-06T12:06:58;28.55;;;18.10;;
36351;SDS011;22382;44.768;17.206;2024-03-06T12:09:32;27.90;;;17.83;;
36351;SDS011;22382;44.768;17.206;2024-03-06T12:12:07;28.33;;;17.60;;
36351;SDS011;22382;44.768;17.206;2024-03-06T12:14:36;28.27;;;18.17;;
36351;SDS011;22382;44.768;17.206;2024-03-06T12:17:10;30.95;;;17.42;;
36351;SDS011;22382;44.768;17.206;2024-03-06T12:19:42;29.63;;;17.52;;
36351;SDS011;22382;44.768;17.206;2024-03-06T12:22:13;27.35;;;17.08;;
36351;SDS011;22382;44.768;17.206;2024-03-06T12:24:42;30.55;;;17.83;;
36351;SDS011;22382;44.768;17.206;2024-03-06T12:27:09;28.48;;;17.05;;
36351;SDS011;22382;44.768;17.206;2024-03-06T12:29:39;28.67;;;17.45;;
36351;SDS011;22382;44.768;17.206;2024-03-06T12:32:15;30.70;;;17.05;;
36351;SDS011;22382;44.768;17.206;2024-03-06T12:34:55;29.60;;;17.02;;
36351;SDS011;22382;44.768;17.206;2024-03-06T12:37:29;29.05;;;17.88;;
36351;SDS011;22382;44.768;17.206;2024-03-06T12:40:02;30.67;;;18.05;;
36351;SDS011;22382;44.768;17.206;2024-03-06T12:42:38;30.38;;;18.02;;
36351;SDS011;22382;44.768;17.206;2024-03-06T12:45:05;28.60;;;17.15;;
36351;SDS011;22382;44.768;17.206;2024-03-06T12:47:33;26.42;;;16.90;;
36351;SDS011;22382;44.768;17.206;2024-03-06T12:50:01;30.52;;;17.45;;
36351;SDS011;22382;44.768;17.206;2024-03-06T12:52:28;25.60;;;17.25;;
36351;SDS011;22382;44.768;17.206;2024-03-06T12:54:55;28.08;;;16.70;;
36351;SDS011;22382;44.768;17.206;2024-03-06T12:57:23;24.05;;;16.00;;
36351;SDS011;22382;44.768;17.206;2024-03-06T12:59:50;29.80;;;16.38;;
36351;SDS011;22382;44.768;17.206;2024-03-06T13:02:17;25.27;;;15.90;;
36351;SDS011;22382;44.768;17.206;2024-03-06T13:04:45;31.98;;;17.33;;
36351;SDS011;22382;44.768;17.206;2024-03-06T13:07:12;24.40;;;15.77;;
36351;SDS011;22382;44.768;17.206;2024-03-06T13:09:41;27.73;;;16.58;;
36351;SDS011;22382;44.768;17.206;2024-03-06T13:12:08;24.95;;;15.45;;
36351;SDS011;22382;44.768;17.206;2024-03-06T13:14:36;26.85;;;16.45;;
36351;SDS011;22382;44.768;17.206;2024-03-06T13:17:04;22.60;;;15.05;;
36351;SDS011;22382;44.768;17.206;2024-03-06T13:19:32;25.90;;;15.63;;
36351;SDS011;22382;44.768;17.206;2024-03-06T13:22:00;22.65;;;15.43;;
36351;SDS011;22382;44.768;17.206;2024-03-06T13:24:31;23.83;;;14.77;;
36351;SDS011;22382;44.768;17.206;2024-03-06T13:26:58;32.55;;;16.50;;
36351;SDS011;22382;44.768;17.206;2024-03-06T13:29:26;24.52;;;13.25;;
36351;SDS011;22382;44.768;17.206;2024-03-06T13:31:53;21.42;;;13.52;;
36351;SDS011;22382;44.768;17.206;2024-03-06T13:34:20;22.15;;;13.93;;
36351;SDS011;22382;44.768;17.206;2024-03-06T13:36:47;20.65;;;12.98;;
36351;SDS011;22382;44.768;17.206;2024-03-06T13:39:14;21.20;;;12.65;;
36351;SDS011;22382;44.768;17.206;2024-03-06T13:41:42;18.52;;;11.57;;
36351;SDS011;22382;44.768;17.206;2024-03-06T13:44:09;24.17;;;13.73;;
36351;SDS011;22382;44.768;17.206;2024-03-06T13:46:36;24.40;;;12.82;;
36351;SDS011;22382;44.768;17.206;2024-03-06T13:49:05;22.73;;;12.45;;
36351;SDS011;22382;44.768;17.206;2024-03-06T13:51:32;22.63;;;12.60;;
36351;SDS011;22382;44.768;17.206;2024-03-06T13:53:59;23.58;;;12.75;;
36351;SDS011;22382;44.768;17.206;2024-03-06T13:56:27;19.10;;;11.18;;
36351;SDS011;22382;44.768;17.206;2024-03-06T13:58:54;16.60;;;11.23;;
36351;SDS011;22382;44.768;17.206;2024-03-06T14:01:21;23.55;;;11.82;;
36351;SDS011;22382;44.768;17.206;2024-03-06T14:03:48;19.95;;;10.63;;
36351;SDS011;22382;44.768;17.206;2024-03-06T14:06:16;20.60;;;9.38;;
36351;SDS011;22382;44.768;17.206;2024-03-06T14:08:43;19.20;;;8.30;;
36351;SDS011;22382;44.768;17.206;2024-03-06T14:11:10;15.85;;;9.02;;
36351;SDS011;22382;44.768;17.206;2024-03-06T14:13:38;16.17;;;8.40;;
36351;SDS011;22382;44.768;17.206;2024-03-06T14:16:05;13.00;;;7.88;;
36351;SDS011;22382;44.768;17.206;2024-03-06T14:18:32;16.60;;;8.15;;
36351;SDS011;22382;44.768;17.206;2024-03-06T14:21:00;14.73;;;8.73;;
36351;SDS011;22382;44.768;17.206;2024-03-06T14:23:28;18.27;;;8.10;;
36351;SDS011;22382;44.768;17.206;2024-03-06T14:25:58;19.27;;;8.52;;
36351;SDS011;22382;44.768;17.206;2024-03-06T14:28:26;14.98;;;8.15;;
36351;SDS011;22382;44.768;17.206;2024-03-06T14:30:53;12.75;;;6.45;;
36351;SDS011;22382;44.768;17.206;2024-03-06T14:33:20;16.58;;;6.80;;
36351;SDS011;22382;44.768;17.206;2024-03-06T14:35:47;16.73;;;6.20;;
36351;SDS011;22382;44.768;17.206;2024-03-06T14:38:16;12.07;;;5.90;;
36351;SDS011;22382;44.768;17.206;2024-03-06T14:40:43;10.25;;;5.80;;
36351;SDS011;22382;44.768;17.206;2024-03-06T14:43:10;11.50;;;6.18;;
36351;SDS011;22382;44.768;17.206;2024-03-06T14:45:38;11.77;;;5.88;;
36351;SDS011;22382;44.768;17.206;2024-03-06T14:48:09;14.30;;;5.93;;
36351;SDS011;22382;44.768;17.206;2024-03-06T14:50:36;10.45;;;5.97;;
36351;SDS011;22382;44.768;17.206;2024-03-06T14:53:03;14.05;;;6.85;;